createdAt,value
2019-03-05T00:00:35.186Z,5.10
2019-03-05T00:01:35.159Z,5.60
2019-03-05T00:02:35.139Z,8.90
2019-03-05T00:03:35.114Z,5.40
2019-03-05T00:04:35.095Z,5.00
2019-03-05T00:05:35.076Z,5.10
2019-03-05T00:06:35.061Z,4.90
2019-03-05T00:07:35.040Z,4.90
2019-03-05T00:08:35.026Z,5.30
2019-03-05T00:09:35.005Z,5.10
2019-03-05T00:10:34.979Z,5.10
2019-03-05T00:11:34.960Z,5.50
2019-03-05T00:12:34.943Z,4.70
2019-03-05T00:13:34.928Z,5.30
2019-03-05T00:14:34.887Z,5.70
2019-03-05T00:15:34.894Z,4.90
2019-03-05T00:16:34.872Z,4.80
2019-03-05T00:17:34.845Z,5.40
2019-03-05T00:18:34.823Z,5.20
2019-03-05T00:19:34.807Z,5.80
2019-03-05T00:20:34.784Z,5.30
2019-03-05T00:21:34.764Z,5.20
2019-03-05T00:22:34.752Z,4.70
2019-03-05T00:23:34.736Z,5.70
2019-03-05T00:24:34.712Z,4.40
2019-03-05T00:25:34.695Z,5.00
2019-03-05T00:26:34.730Z,6.70
2019-03-05T00:27:34.656Z,7.60
2019-03-05T00:28:34.810Z,6.00
2019-03-05T00:29:34.625Z,4.90
2019-03-05T00:30:34.601Z,6.60
2019-03-05T00:31:34.578Z,5.60
2019-03-05T00:32:34.561Z,5.20
2019-03-05T00:33:34.544Z,6.10
2019-03-05T00:34:34.524Z,4.70
2019-03-05T00:35:34.571Z,5.10
2019-03-05T00:36:34.466Z,6.00
2019-03-05T00:37:34.445Z,4.90
2019-03-05T00:38:34.439Z,6.50
2019-03-05T00:39:34.421Z,5.50
2019-03-05T00:40:34.407Z,5.70
2019-03-05T00:41:34.390Z,5.30
2019-03-05T00:42:34.342Z,6.00
2019-03-05T00:43:34.340Z,7.00
2019-03-05T00:44:34.307Z,5.80
2019-03-05T00:45:34.284Z,5.50
2019-03-05T00:46:34.288Z,5.30
2019-03-05T00:47:34.267Z,6.10
2019-03-05T00:48:34.249Z,5.80
2019-03-05T00:49:34.232Z,6.10
2019-03-05T00:50:34.213Z,6.20
2019-03-05T00:51:34.189Z,5.80
2019-03-05T00:52:34.144Z,7.00
2019-03-05T00:53:34.134Z,5.20
2019-03-05T00:54:34.129Z,5.40
2019-03-05T00:55:34.088Z,5.60
2019-03-05T00:56:34.072Z,5.70
2019-03-05T00:57:34.053Z,6.20
2019-03-05T00:58:34.054Z,5.20
2019-03-05T00:59:34.039Z,6.00
2019-03-05T01:00:34.018Z,5.60
2019-03-05T01:01:33.992Z,5.50
2019-03-05T01:02:33.981Z,7.70
2019-03-05T01:03:33.953Z,6.00
2019-03-05T01:04:33.937Z,5.00
2019-03-05T01:05:33.917Z,5.20
2019-03-05T01:06:33.901Z,5.20
2019-03-05T01:07:33.873Z,5.80
2019-03-05T01:08:33.862Z,6.20
2019-03-05T01:09:33.835Z,5.00
2019-03-05T01:10:33.818Z,5.20
2019-03-05T01:11:33.794Z,5.80
2019-03-05T01:12:33.782Z,5.50
2019-03-05T01:13:33.742Z,5.50
2019-03-05T01:14:33.748Z,5.40
2019-03-05T01:15:33.723Z,6.10
2019-03-05T01:16:33.705Z,6.60
2019-03-05T01:17:33.684Z,6.30
2019-03-05T01:18:33.661Z,5.50
2019-03-05T01:19:33.628Z,6.10
2019-03-05T01:20:33.607Z,5.90
2019-03-05T01:21:33.582Z,5.60
2019-03-05T01:22:33.581Z,6.10
2019-03-05T01:23:33.564Z,5.20
2019-03-05T01:24:33.544Z,6.90
2019-03-05T01:25:33.530Z,5.90
2019-03-05T01:26:33.504Z,5.30
2019-03-05T01:27:33.492Z,5.40
2019-03-05T01:28:33.473Z,5.10
2019-03-05T01:29:33.449Z,5.70
2019-03-05T01:30:33.435Z,7.50
2019-03-05T01:31:33.393Z,5.60
2019-03-05T01:32:33.397Z,5.70
2019-03-05T01:33:33.369Z,5.70
2019-03-05T01:34:33.355Z,5.80
2019-03-05T01:35:33.328Z,5.50
2019-03-05T01:36:33.309Z,5.40
2019-03-05T01:37:33.293Z,5.40
2019-03-05T01:38:33.253Z,5.00
2019-03-05T01:39:33.241Z,5.70
2019-03-05T01:40:33.240Z,5.40
2019-03-05T01:41:33.217Z,5.20
2019-03-05T01:42:33.191Z,5.00
2019-03-05T01:43:33.173Z,5.30
2019-03-05T01:44:33.164Z,5.30
2019-03-05T01:45:33.138Z,5.20
2019-03-05T01:46:33.123Z,4.50
2019-03-05T01:47:33.116Z,4.90
2019-03-05T01:48:33.057Z,4.40
2019-03-05T01:49:33.041Z,7.10
2019-03-05T01:50:33.040Z,4.90
2019-03-05T01:51:33.020Z,4.90
2019-03-05T01:52:33.005Z,6.80
2019-03-05T01:53:32.978Z,4.60
2019-03-05T01:54:32.965Z,4.10
2019-03-05T01:55:32.946Z,4.60
2019-03-05T01:56:32.900Z,4.50
2019-03-05T01:57:32.887Z,5.00
2019-03-05T01:58:32.889Z,4.80
2019-03-05T01:59:32.849Z,5.00
2019-03-05T02:00:32.846Z,5.30
2019-03-05T02:01:32.804Z,5.40
2019-03-05T02:02:32.800Z,5.10
2019-03-05T02:03:32.781Z,5.00
2019-03-05T02:04:32.766Z,4.60
2019-03-05T02:05:32.750Z,5.30
2019-03-05T02:06:32.738Z,4.60
2019-03-05T02:07:32.688Z,5.00
2019-03-05T02:08:32.686Z,4.70
2019-03-05T02:09:32.672Z,5.40
2019-03-05T02:10:32.646Z,4.60
2019-03-05T02:11:32.624Z,5.00
2019-03-05T02:12:32.612Z,4.90
2019-03-05T02:13:32.584Z,5.40
2019-03-05T02:14:32.571Z,5.70
2019-03-05T02:15:32.549Z,6.30
2019-03-05T02:16:32.507Z,5.70
2019-03-05T02:17:32.491Z,6.30
2019-03-05T02:18:32.484Z,7.90
2019-03-05T02:19:32.464Z,8.30
2019-03-05T02:20:32.451Z,6.90
2019-03-05T02:21:32.430Z,6.90
2019-03-05T02:22:32.412Z,7.40
2019-03-05T02:23:32.379Z,7.40
2019-03-05T02:24:32.349Z,7.20
2019-03-05T02:25:32.351Z,6.90
2019-03-05T02:26:32.334Z,7.20
2019-03-05T02:27:32.312Z,6.80
2019-03-05T02:28:32.294Z,6.10
2019-03-05T02:29:32.677Z,7.60
2019-03-05T02:30:32.255Z,7.90
2019-03-05T02:31:32.234Z,7.00
2019-03-05T02:32:32.217Z,6.20
2019-03-05T02:33:32.197Z,6.90
2019-03-05T02:34:32.184Z,6.80
2019-03-05T02:35:32.141Z,6.60
2019-03-05T02:36:32.145Z,6.20
2019-03-05T02:37:32.121Z,7.20
2019-03-05T02:38:32.255Z,6.80
2019-03-05T02:39:32.083Z,7.60
2019-03-05T02:40:32.058Z,6.70
2019-03-05T02:41:32.064Z,7.10
2019-03-05T02:42:32.030Z,8.40
2019-03-05T02:43:32.004Z,7.80
2019-03-05T02:44:31.990Z,7.80
2019-03-05T02:45:31.952Z,9.10
2019-03-05T02:46:31.941Z,7.50
2019-03-05T02:47:31.936Z,8.10
2019-03-05T02:48:31.904Z,7.30
2019-03-05T02:49:31.884Z,7.70
2019-03-05T02:50:31.848Z,7.40
2019-03-05T02:51:31.846Z,7.80
2019-03-05T02:52:31.806Z,7.90
2019-03-05T02:53:31.809Z,6.90
2019-03-05T02:54:31.786Z,7.50
2019-03-05T02:55:31.771Z,6.90
2019-03-05T02:56:31.743Z,7.00
2019-03-05T02:57:31.729Z,8.40
2019-03-05T02:58:31.713Z,7.70
2019-03-05T02:59:31.683Z,7.20
2019-03-05T03:06:09.185Z,7.50
2019-03-05T03:06:43.496Z,7.60
2019-03-05T03:07:43.460Z,8.50
2019-03-05T03:08:43.469Z,9.70
2019-03-05T03:09:43.425Z,10.00
2019-03-05T03:10:43.408Z,9.40
2019-03-05T03:11:43.390Z,13.70
2019-03-05T03:12:43.381Z,13.00
2019-03-05T03:13:43.343Z,17.10
2019-03-05T03:14:43.453Z,17.00
2019-03-05T03:15:43.306Z,14.60
2019-03-05T03:16:43.292Z,18.20
2019-03-05T03:17:43.269Z,20.00
2019-03-05T03:18:43.226Z,17.90
2019-03-05T03:19:43.233Z,19.60
2019-03-05T03:20:43.205Z,20.40
2019-03-05T03:21:43.184Z,15.70
2019-03-05T03:22:43.174Z,17.70
2019-03-05T03:23:43.149Z,19.80
2019-03-05T03:24:43.107Z,24.00
2019-03-05T03:25:43.105Z,19.30
2019-03-05T03:26:43.072Z,23.70
2019-03-05T03:27:43.069Z,21.00
2019-03-05T03:28:43.054Z,19.00
2019-03-05T03:29:43.037Z,20.70
2019-03-05T03:30:43.013Z,18.40
2019-03-05T03:31:42.983Z,21.20
2019-03-05T03:32:42.985Z,20.30
2019-03-05T03:33:42.927Z,20.20
2019-03-05T03:34:42.924Z,19.80
2019-03-05T03:35:42.926Z,21.70
2019-03-05T03:36:42.889Z,19.20
2019-03-05T03:37:42.871Z,20.50
2019-03-05T03:38:42.853Z,13.20
2019-03-05T03:39:42.826Z,13.80
2019-03-05T03:40:42.816Z,11.90
2019-03-05T03:41:42.783Z,11.40
2019-03-05T03:42:42.765Z,16.30
2019-03-05T03:43:42.877Z,9.90
2019-03-05T03:44:42.726Z,12.50
2019-03-05T03:45:42.715Z,15.40
2019-03-05T03:46:42.697Z,12.10
2019-03-05T03:47:42.651Z,14.80
2019-03-05T03:48:42.655Z,16.30
2019-03-05T03:49:42.626Z,12.80
2019-03-05T03:50:42.610Z,16.70
2019-03-05T03:51:42.588Z,18.90
2019-03-05T03:52:42.547Z,16.60
2019-03-05T03:53:42.536Z,18.90
2019-03-05T03:54:42.531Z,14.60
2019-03-05T03:55:42.509Z,16.80
2019-03-05T03:56:42.488Z,14.90
2019-03-05T03:57:42.476Z,17.70
2019-03-05T03:58:42.446Z,15.60
2019-03-05T03:59:42.431Z,14.70
2019-03-05T04:00:42.393Z,13.00
2019-03-05T04:01:42.368Z,16.20
2019-03-05T04:02:42.373Z,15.40
2019-03-05T04:03:42.348Z,15.00
2019-03-05T04:04:42.347Z,14.80
2019-03-05T04:05:42.312Z,17.70
2019-03-05T04:06:42.296Z,17.00
2019-03-05T04:07:42.277Z,19.40
2019-03-05T04:08:42.248Z,16.50
2019-03-05T04:09:42.239Z,17.10
2019-03-05T04:10:42.213Z,18.60
2019-03-05T04:11:42.189Z,17.40
2019-03-05T04:12:42.167Z,16.60
2019-03-05T04:13:42.149Z,14.40
2019-03-05T04:14:42.118Z,18.10
2019-03-05T04:15:42.106Z,17.80
2019-03-05T04:16:42.089Z,16.30
2019-03-05T04:17:42.069Z,18.50
2019-03-05T04:18:42.057Z,18.20
2019-03-05T04:19:42.032Z,13.50
2019-03-05T04:20:41.991Z,16.00
2019-03-05T04:21:41.987Z,15.10
2019-03-05T04:22:41.954Z,13.60
2019-03-05T04:23:41.938Z,14.50
2019-03-05T04:24:41.937Z,15.10
2019-03-05T04:25:41.912Z,17.10
2019-03-05T04:26:41.892Z,14.30
2019-03-05T04:27:41.873Z,13.80
2019-03-05T04:28:41.832Z,13.40
2019-03-05T04:29:41.834Z,12.30
2019-03-05T04:30:41.811Z,13.40
2019-03-05T04:31:41.800Z,12.60
2019-03-05T04:32:41.773Z,13.70
2019-03-05T04:33:41.755Z,11.20
2019-03-05T04:34:41.730Z,11.40
2019-03-05T04:35:41.718Z,11.30
2019-03-05T04:36:41.675Z,15.40
2019-03-05T04:37:41.653Z,11.30
2019-03-05T04:38:41.651Z,13.00
2019-03-05T04:39:41.634Z,14.00
2019-03-05T04:40:41.594Z,12.60
2019-03-05T04:41:41.572Z,13.50
2019-03-05T04:42:41.551Z,13.10
2019-03-05T04:43:41.532Z,13.20
2019-03-05T04:44:41.534Z,12.60
2019-03-05T04:45:41.510Z,12.70
2019-03-05T04:46:41.493Z,13.00
2019-03-05T04:47:41.470Z,13.30
2019-03-05T04:48:41.461Z,11.60
2019-03-05T04:49:41.432Z,13.10
2019-03-05T04:50:41.411Z,13.10
2019-03-05T04:51:41.373Z,12.60
2019-03-05T04:52:41.368Z,13.20
2019-03-05T04:53:41.349Z,14.50
2019-03-05T04:54:41.410Z,13.50
2019-03-05T04:55:41.306Z,14.10
2019-03-05T04:56:41.299Z,14.50
2019-03-05T04:57:41.271Z,13.90
2019-03-05T04:58:41.250Z,13.00
2019-03-05T04:59:41.231Z,12.80
2019-03-05T05:00:41.216Z,13.40
2019-03-05T05:01:41.192Z,13.80
2019-03-05T05:02:41.170Z,14.20
2019-03-05T05:03:41.150Z,14.90
2019-03-05T05:04:41.110Z,16.80
2019-03-05T05:05:41.093Z,14.00
2019-03-05T05:06:41.093Z,13.40
2019-03-05T05:07:41.072Z,13.90
2019-03-05T05:08:41.055Z,13.40
2019-03-05T05:09:41.032Z,14.20
2019-03-05T05:10:41.016Z,14.00
2019-03-05T05:11:40.991Z,14.20
2019-03-05T05:12:40.974Z,14.10
2019-03-05T05:13:40.950Z,14.80
2019-03-05T05:14:40.934Z,14.50
2019-03-05T05:15:40.911Z,15.80
2019-03-05T05:16:40.899Z,14.10
2019-03-05T05:17:40.868Z,14.40
2019-03-05T05:18:40.836Z,15.70
2019-03-05T05:19:40.806Z,14.60
2019-03-05T05:20:40.810Z,14.10
2019-03-05T05:21:40.791Z,16.30
2019-03-05T05:22:40.768Z,16.00
2019-03-05T05:23:40.744Z,17.80
2019-03-05T05:24:40.735Z,17.60
2019-03-05T05:25:40.716Z,14.80
2019-03-05T05:26:40.673Z,15.20
2019-03-05T05:27:40.650Z,14.80
2019-03-05T05:28:40.650Z,14.30
2019-03-05T05:29:40.630Z,13.90
2019-03-05T05:30:40.609Z,14.80
2019-03-05T05:31:40.589Z,14.00
2019-03-05T05:32:40.568Z,14.30
2019-03-05T05:33:40.545Z,17.30
2019-03-05T05:34:40.531Z,15.30
2019-03-05T05:35:40.511Z,18.10
2019-03-05T05:36:40.487Z,16.00
2019-03-05T05:37:40.468Z,17.30
2019-03-05T05:38:40.452Z,15.50
2019-03-05T05:39:40.428Z,18.00
2019-03-05T05:40:40.414Z,14.90
2019-03-05T05:41:40.392Z,16.10
2019-03-05T05:42:40.364Z,15.00
2019-03-05T05:43:40.350Z,17.80
2019-03-05T05:44:40.329Z,15.50
2019-03-05T05:45:40.290Z,16.60
2019-03-05T05:46:40.289Z,15.70
2019-03-05T05:47:40.267Z,14.50
2019-03-05T05:48:40.249Z,16.40
2019-03-05T05:49:40.227Z,15.50
2019-03-05T05:50:40.209Z,16.90
2019-03-05T05:51:40.187Z,15.60
2019-03-05T05:52:40.163Z,15.70
2019-03-05T05:53:40.145Z,15.70
2019-03-05T05:54:40.135Z,14.00
2019-03-05T05:55:40.091Z,13.50
2019-03-05T05:56:40.082Z,17.60
2019-03-05T05:57:40.063Z,16.30
2019-03-05T05:58:40.043Z,16.30
2019-03-05T05:59:40.023Z,15.00
2019-03-05T06:00:40.009Z,17.00
2019-03-05T06:01:39.991Z,18.00
2019-03-05T06:02:39.966Z,18.60
2019-03-05T06:03:39.948Z,18.60
2019-03-05T06:04:39.929Z,18.70
2019-03-05T06:05:39.900Z,19.90
2019-03-05T06:06:39.889Z,18.00
2019-03-05T06:07:39.868Z,18.40
2019-03-05T06:08:39.829Z,18.90
2019-03-05T06:09:39.808Z,18.70
2019-03-05T06:10:39.802Z,21.10
2019-03-05T06:11:39.793Z,19.70
2019-03-05T06:12:39.761Z,18.60
2019-03-05T06:13:39.742Z,17.90
2019-03-05T06:15:12.933Z,17.10
2019-03-05T06:15:39.700Z,17.00
2019-03-05T06:16:39.691Z,16.50
2019-03-05T06:17:39.663Z,18.20
2019-03-05T06:18:39.640Z,16.10
2019-03-05T06:19:39.623Z,14.00
2019-03-05T06:20:39.603Z,14.80
2019-03-05T06:21:39.568Z,14.60
2019-03-05T06:22:39.539Z,16.00
2019-03-05T06:23:39.550Z,16.00
2019-03-05T06:24:39.517Z,15.00
2019-03-05T06:25:39.501Z,14.50
2019-03-05T06:26:39.479Z,15.00
2019-03-05T06:27:39.449Z,17.20
2019-03-05T06:28:39.421Z,16.00
2019-03-05T06:29:39.419Z,14.50
2019-03-05T06:30:39.379Z,14.70
2019-03-05T06:31:39.381Z,14.30
2019-03-05T06:32:39.360Z,14.90
2019-03-05T06:33:39.342Z,13.30
2019-03-05T06:34:39.322Z,13.30
2019-03-05T06:35:39.280Z,11.70
2019-03-05T06:36:39.279Z,14.90
2019-03-05T06:37:39.262Z,12.50
2019-03-05T06:38:39.223Z,11.50
2019-03-05T06:39:39.220Z,12.40
2019-03-05T06:40:39.204Z,12.80
2019-03-05T06:41:39.174Z,15.80
2019-03-05T06:42:39.160Z,13.00
2019-03-05T06:43:39.118Z,13.30
2019-03-05T06:44:39.103Z,13.30
2019-03-05T06:45:39.094Z,13.20
2019-03-05T06:46:39.081Z,12.20
2019-03-05T06:47:39.061Z,13.00
2019-03-05T06:48:39.041Z,12.60
2019-03-05T06:49:39.001Z,12.90
2019-03-05T06:50:39.003Z,13.30
2019-03-05T06:51:38.973Z,11.80
2019-03-05T06:52:38.965Z,12.90
2019-03-05T06:53:38.936Z,14.20
2019-03-05T06:54:38.914Z,12.80
2019-03-05T06:55:38.894Z,13.60
2019-03-05T06:56:38.880Z,13.10
2019-03-05T06:57:38.861Z,12.90
2019-03-05T06:58:38.819Z,12.00
2019-03-05T06:59:38.814Z,12.00
2019-03-05T07:00:38.798Z,12.40
2019-03-05T07:01:38.777Z,10.80
2019-03-05T07:02:38.755Z,12.90
2019-03-05T07:03:38.740Z,13.40
2019-03-05T07:04:38.714Z,13.10
2019-03-05T07:05:38.700Z,12.90
2019-03-05T07:06:38.675Z,13.30
2019-03-05T07:07:38.656Z,12.90
2019-03-05T07:08:38.633Z,13.10
2019-03-05T07:09:38.613Z,14.30
2019-03-05T07:10:38.600Z,14.30
2019-03-05T07:11:38.566Z,12.60
2019-03-05T07:12:38.536Z,11.70
2019-03-05T07:13:38.519Z,12.70
2019-03-05T07:14:38.520Z,12.00
2019-03-05T07:15:38.495Z,12.30
2019-03-05T07:16:38.480Z,11.90
2019-03-05T07:17:38.459Z,12.80
2019-03-05T07:18:38.437Z,12.20
2019-03-05T07:19:38.399Z,12.90
2019-03-05T07:20:38.378Z,17.40
2019-03-05T07:21:38.373Z,13.10
2019-03-05T07:22:38.336Z,12.30
2019-03-05T07:23:38.338Z,15.30
2019-03-05T07:24:38.392Z,12.60
2019-03-05T07:25:38.291Z,14.10
2019-03-05T07:26:38.277Z,15.10
2019-03-05T07:27:38.252Z,12.60
2019-03-05T07:28:38.231Z,13.10
2019-03-05T07:29:38.222Z,14.20
2019-03-05T07:30:38.194Z,12.70
2019-03-05T07:31:38.184Z,13.20
2019-03-05T07:32:38.159Z,13.70
2019-03-05T07:33:38.139Z,13.20
2019-03-05T07:34:38.120Z,12.60
2019-03-05T07:35:38.091Z,13.40
2019-03-05T07:36:38.058Z,13.00
2019-03-05T07:37:38.049Z,15.50
2019-03-05T07:38:38.033Z,19.70
2019-03-05T07:39:38.010Z,14.60
2019-03-05T07:40:37.992Z,16.20
2019-03-05T07:41:37.972Z,15.60
2019-03-05T07:42:37.957Z,16.10
2019-03-05T07:43:37.909Z,16.50
2019-03-05T07:44:37.918Z,17.90
2019-03-05T07:45:37.893Z,16.70
2019-03-05T07:46:37.852Z,17.90
2019-03-05T07:47:37.851Z,16.50
2019-03-05T07:48:37.827Z,17.40
2019-03-05T07:49:43.596Z,17.50
2019-03-05T07:50:37.785Z,17.60
2019-03-05T07:51:37.764Z,16.40
2019-03-05T07:52:37.749Z,16.90
2019-03-05T07:53:37.730Z,17.50
2019-03-05T07:54:37.711Z,14.60
2019-03-05T07:55:37.688Z,15.00
2019-03-05T07:56:37.670Z,15.20
2019-03-05T07:57:37.626Z,14.90
2019-03-05T07:58:37.623Z,17.00
2019-03-05T07:59:37.610Z,17.60
2019-03-05T08:00:37.578Z,14.20
2019-03-05T08:01:37.571Z,13.60
2019-03-05T08:02:37.542Z,13.40
2019-03-05T08:03:37.528Z,13.50
2019-03-05T08:04:37.507Z,14.20
2019-03-05T08:05:37.484Z,17.10
2019-03-05T08:06:37.441Z,12.20
2019-03-05T08:07:37.436Z,12.70
2019-03-05T08:08:37.415Z,13.10
2019-03-05T08:09:37.413Z,14.50
2019-03-05T08:10:37.371Z,12.60
2019-03-05T08:11:37.337Z,17.10
2019-03-05T08:12:37.338Z,15.20
2019-03-05T08:13:37.296Z,14.70
2019-03-05T08:14:37.301Z,12.50
2019-03-05T08:15:37.281Z,17.20
2019-03-05T08:17:10.462Z,12.70
2019-03-05T08:17:37.234Z,12.60
2019-03-05T08:18:37.289Z,12.80
2019-03-05T08:19:37.196Z,13.60
2019-03-05T08:20:37.169Z,12.50
2019-03-05T08:21:37.159Z,13.20
2019-03-05T08:22:37.133Z,15.10
2019-03-05T08:23:37.088Z,17.10
2019-03-05T08:24:37.089Z,13.40
2019-03-05T08:25:37.071Z,15.40
2019-03-05T08:26:37.050Z,12.60
2019-03-05T08:27:37.029Z,14.60
2019-03-05T08:28:37.008Z,12.70
2019-03-05T08:29:36.982Z,11.30
2019-03-05T08:30:36.967Z,11.90
2019-03-05T08:31:36.945Z,12.30
2019-03-05T08:32:36.931Z,11.60
2019-03-05T08:33:36.882Z,11.60
2019-03-05T08:34:36.879Z,13.40
2019-03-05T08:35:36.865Z,11.80
2019-03-05T08:36:36.840Z,11.60
2019-03-05T08:37:36.823Z,14.20
2019-03-05T08:38:36.781Z,10.90
2019-03-05T08:39:36.761Z,11.00
2019-03-05T08:40:36.766Z,13.20
2019-03-05T08:41:36.735Z,10.70
2019-03-05T08:42:36.719Z,13.30
2019-03-05T08:43:36.698Z,14.00
2019-03-05T08:44:36.682Z,11.50
2019-03-05T08:45:36.658Z,12.60
2019-03-05T08:46:36.632Z,12.50
2019-03-05T08:47:36.613Z,11.90
2019-03-05T08:48:36.579Z,11.60
2019-03-05T08:49:36.564Z,12.70
2019-03-05T08:50:36.557Z,13.90
2019-03-05T08:51:36.534Z,12.80
2019-03-05T08:52:36.520Z,14.00
2019-03-05T08:53:36.493Z,12.80
2019-03-05T08:54:36.466Z,14.50
2019-03-05T08:55:36.446Z,15.10
2019-03-05T08:56:36.435Z,16.80
2019-03-05T08:57:36.406Z,14.20
2019-03-05T08:58:36.384Z,16.00
2019-03-05T08:59:36.368Z,14.80
2019-03-05T09:00:36.356Z,15.90
2019-03-05T09:01:36.310Z,14.40
2019-03-05T09:02:47.771Z,19.50
2019-03-05T09:03:36.291Z,16.20
2019-03-05T09:04:36.265Z,23.10
2019-03-05T09:05:36.250Z,20.10
2019-03-05T09:06:36.203Z,19.30
2019-03-05T09:07:36.206Z,19.50
2019-03-05T09:08:38.397Z,20.60
2019-03-05T09:09:36.165Z,21.00
2019-03-05T09:10:36.147Z,18.80
2019-03-05T09:11:36.119Z,19.20
2019-03-05T09:12:36.100Z,15.00
2019-03-05T09:13:36.077Z,15.10
2019-03-05T09:14:36.043Z,14.30
2019-03-05T09:15:36.042Z,14.40
2019-03-05T09:16:36.025Z,15.60
2019-03-05T09:17:36.001Z,14.10
2019-03-05T09:18:35.975Z,15.00
2019-03-05T09:19:35.958Z,15.50
2019-03-05T09:20:35.944Z,12.70
2019-03-05T09:21:35.916Z,10.60
2019-03-05T09:22:35.894Z,13.10
2019-03-05T09:23:35.853Z,11.00
2019-03-05T09:24:35.854Z,11.70
2019-03-05T09:25:35.842Z,11.20
2019-03-05T09:26:35.821Z,12.10
2019-03-05T09:27:35.803Z,13.00
2019-03-05T09:28:35.753Z,12.50
2019-03-05T09:29:35.760Z,10.70
2019-03-05T09:30:35.738Z,11.30
2019-03-05T09:31:35.712Z,11.00
2019-03-05T09:32:35.701Z,14.60
2019-03-05T09:33:35.683Z,14.10
2019-03-05T09:34:35.654Z,11.60
2019-03-05T09:35:35.636Z,13.30
2019-03-05T09:36:35.611Z,12.10
2019-03-05T09:37:35.591Z,12.20
2019-03-05T09:38:35.572Z,13.10
2019-03-05T09:39:35.561Z,11.80
2019-03-05T09:40:35.529Z,10.90
2019-03-05T09:41:35.512Z,11.50
2019-03-05T09:42:39.806Z,11.60
2019-03-05T09:43:35.475Z,11.50
2019-03-05T09:44:35.457Z,13.40
2019-03-05T09:45:35.429Z,12.20
2019-03-05T09:46:35.409Z,11.20
2019-03-05T09:47:35.400Z,14.80
2019-03-05T09:48:35.378Z,14.90
2019-03-05T09:49:35.350Z,12.20
2019-03-05T09:50:35.311Z,10.40
2019-03-05T09:51:35.293Z,10.40
2019-03-05T09:53:08.484Z,13.30
2019-03-05T09:53:35.275Z,11.40
2019-03-05T09:54:35.255Z,12.20
2019-03-05T09:55:35.246Z,12.40
2019-03-05T09:56:35.218Z,11.00
2019-03-05T09:57:35.188Z,12.70
2019-03-05T09:58:35.182Z,11.10
2019-03-05T09:59:35.151Z,10.40
2019-03-05T10:00:35.132Z,10.70
2019-03-05T10:01:35.113Z,13.10
2019-03-05T10:02:35.090Z,14.00
2019-03-05T10:03:35.078Z,12.10
2019-03-05T10:04:35.061Z,12.50
2019-03-05T10:05:35.034Z,12.90
2019-03-05T10:06:35.013Z,13.10
2019-03-05T10:07:34.999Z,15.90
2019-03-05T10:08:34.987Z,13.80
2019-03-05T10:09:34.959Z,16.90
2019-03-05T10:10:34.923Z,16.70
2019-03-05T10:11:34.923Z,15.50
2019-03-05T10:12:34.902Z,16.10
2019-03-05T10:13:34.876Z,15.00
2019-03-05T10:14:34.866Z,14.30
2019-03-05T10:15:34.838Z,14.80
2019-03-05T10:16:34.819Z,14.90
2019-03-05T10:17:38.156Z,13.30
2019-03-05T10:18:34.764Z,14.30
2019-03-05T10:19:34.773Z,13.70
2019-03-05T10:20:34.744Z,12.70
2019-03-05T10:21:45.567Z,13.60
2019-03-05T10:22:34.709Z,13.20
2019-03-05T10:23:34.687Z,17.50
2019-03-05T10:24:34.684Z,12.60
2019-03-05T10:25:34.628Z,11.70
2019-03-05T10:26:34.639Z,12.10
2019-03-05T10:27:34.609Z,7.90
2019-03-05T10:28:34.587Z,10.30
2019-03-05T10:29:34.552Z,11.80
2019-03-05T10:30:34.555Z,12.20
2019-03-05T10:31:34.517Z,10.00
2019-03-05T10:32:34.498Z,10.00
2019-03-05T10:33:34.500Z,9.90
2019-03-05T10:34:34.484Z,9.90
2019-03-05T10:35:34.457Z,10.10
2019-03-05T10:36:34.438Z,10.10
2019-03-05T10:37:34.419Z,10.20
2019-03-05T10:38:34.394Z,8.70
2019-03-05T10:39:34.385Z,8.90
2019-03-05T10:40:34.367Z,8.50
2019-03-05T10:41:34.342Z,9.50
2019-03-05T10:42:34.321Z,8.50
2019-03-05T10:43:34.305Z,8.90
2019-03-05T10:44:34.281Z,8.90
2019-03-05T10:45:34.248Z,13.30
2019-03-05T10:46:34.247Z,6.90
2019-03-05T10:47:34.288Z,6.80
2019-03-05T10:48:34.211Z,6.90
2019-03-05T10:49:34.190Z,6.70
2019-03-05T10:50:34.175Z,6.60
2019-03-05T10:51:34.158Z,6.50
2019-03-05T10:52:34.135Z,6.90
2019-03-05T10:53:34.107Z,6.80
2019-03-05T10:54:34.101Z,6.10
2019-03-05T10:55:34.082Z,5.80
2019-03-05T10:56:34.045Z,5.60
2019-03-05T10:57:34.049Z,5.90
2019-03-05T10:58:34.574Z,7.50
2019-03-05T10:59:34.003Z,7.70
2019-03-05T11:00:33.983Z,7.70
2019-03-05T11:01:33.971Z,5.10
2019-03-05T11:02:33.948Z,6.80
2019-03-05T11:03:33.935Z,5.10
2019-03-05T11:04:33.922Z,4.70
2019-03-05T11:05:33.897Z,10.30
2019-03-05T11:06:33.875Z,6.00
2019-03-05T11:07:33.863Z,6.10
2019-03-05T11:08:33.839Z,4.60
2019-03-05T11:09:33.823Z,4.30
2019-03-05T11:10:33.804Z,4.50
2019-03-05T11:11:33.788Z,5.90
2019-03-05T11:12:33.770Z,4.50
2019-03-05T11:13:33.733Z,4.30
2019-03-05T11:14:33.717Z,4.70
2019-03-05T11:15:33.718Z,5.10
2019-03-05T11:16:33.704Z,4.30
2019-03-05T11:17:33.679Z,4.70
2019-03-05T11:18:33.660Z,5.10
2019-03-05T11:19:33.644Z,4.40
2019-03-05T11:20:33.631Z,9.70
2019-03-05T11:21:33.594Z,4.40
2019-03-05T11:22:33.595Z,4.40
2019-03-05T11:23:33.558Z,4.00
2019-03-05T11:24:33.543Z,5.60
2019-03-05T11:25:33.540Z,3.50
2019-03-05T11:26:33.530Z,3.80
2019-03-05T11:27:33.506Z,3.80
2019-03-05T11:28:33.494Z,3.60
2019-03-05T11:29:33.452Z,4.10
2019-03-05T11:30:36.415Z,3.60
2019-03-05T11:31:33.445Z,4.60
2019-03-05T11:32:33.419Z,3.60
2019-03-05T11:33:33.405Z,4.20
2019-03-05T11:34:33.398Z,4.20
2019-03-05T11:35:33.379Z,4.20
2019-03-05T11:36:33.560Z,3.60
2019-03-05T11:37:33.335Z,4.70
2019-03-05T11:38:33.322Z,3.80
2019-03-05T11:39:33.305Z,5.80
2019-03-05T11:40:33.299Z,4.70
2019-03-05T11:41:33.251Z,3.60
2019-03-05T11:42:33.247Z,4.00
2019-03-05T11:43:33.249Z,3.60
2019-03-05T11:44:33.224Z,3.70
2019-03-05T11:45:33.212Z,3.80
2019-03-05T11:46:33.192Z,3.50
2019-03-05T11:47:33.178Z,5.80
2019-03-05T11:48:33.161Z,5.40
2019-03-05T11:49:33.149Z,4.10
2019-03-05T11:50:33.134Z,3.30
2019-03-05T11:51:33.122Z,4.30
2019-03-05T11:52:33.103Z,3.60
2019-03-05T11:53:33.085Z,4.80
2019-03-05T11:54:33.069Z,3.70
2019-03-05T11:55:33.055Z,3.00
2019-03-05T11:56:33.051Z,3.30
2019-03-05T11:57:33.009Z,4.90
2019-03-05T11:58:33.010Z,4.00
2019-03-05T11:59:32.997Z,3.30
2019-03-05T12:00:32.984Z,4.10
2019-03-05T12:01:32.960Z,3.60
2019-03-05T12:02:32.948Z,3.00
2019-03-05T12:03:32.933Z,3.50
2019-03-05T12:04:32.930Z,3.80
2019-03-05T12:05:32.908Z,5.90
2019-03-05T12:06:32.896Z,3.40
2019-03-05T12:07:32.875Z,3.90
2019-03-05T12:08:32.858Z,3.80
2019-03-05T12:09:32.824Z,3.70
2019-03-05T12:10:32.831Z,4.50
2019-03-05T12:11:32.813Z,5.40
2019-03-05T12:12:32.804Z,4.50
2019-03-05T12:13:32.783Z,3.80
2019-03-05T12:14:32.767Z,3.90
2019-03-05T12:15:32.752Z,4.60
2019-03-05T12:16:32.743Z,3.90
2019-03-05T12:17:32.722Z,3.80
2019-03-05T12:18:32.684Z,3.30
2019-03-05T12:19:32.676Z,4.50
2019-03-05T12:20:32.656Z,4.00
2019-03-05T12:21:32.654Z,4.00
2019-03-05T12:22:32.672Z,5.40
2019-03-05T12:23:32.629Z,5.60
2019-03-05T12:24:32.613Z,4.60
2019-03-05T12:25:36.233Z,4.80
2019-03-05T12:26:32.575Z,4.30
2019-03-05T12:27:32.547Z,4.30
2019-03-05T12:28:32.528Z,5.30
2019-03-05T12:29:32.537Z,5.00
2019-03-05T12:30:32.520Z,4.30
2019-03-05T12:31:32.507Z,5.10
2019-03-05T12:32:32.493Z,4.00
2019-03-05T12:33:32.478Z,4.10
2019-03-05T12:34:32.464Z,6.50
2019-03-05T12:35:32.425Z,5.90
2019-03-05T12:36:32.420Z,4.80
2019-03-05T12:37:32.420Z,4.20
2019-03-05T12:38:32.387Z,5.00
2019-03-05T12:39:32.376Z,3.60
2019-03-05T12:40:32.367Z,4.20
2019-03-05T12:41:32.373Z,3.50
2019-03-05T12:42:32.360Z,5.20
2019-03-05T12:43:32.346Z,5.30
2019-03-05T12:44:32.339Z,3.50
2019-03-05T12:45:32.332Z,5.30
2019-03-05T12:46:32.309Z,3.30
2019-03-05T12:47:32.301Z,3.40
2019-03-05T12:48:39.981Z,3.50
2019-03-05T12:49:32.280Z,4.20
2019-03-05T12:50:32.260Z,3.20
2019-03-05T12:51:32.249Z,4.50
2019-03-05T12:52:32.238Z,3.80
2019-03-05T12:53:32.229Z,3.60
2019-03-05T12:54:32.214Z,4.00
2019-03-05T12:55:32.208Z,4.00
2019-03-05T12:56:32.178Z,3.60
2019-03-05T12:57:32.190Z,3.70
2019-03-05T12:58:32.175Z,3.70
2019-03-05T12:59:32.156Z,3.40
2019-03-05T13:00:32.155Z,3.00
2019-03-05T13:01:34.799Z,3.80
2019-03-05T13:02:32.112Z,3.50
2019-03-05T13:03:32.097Z,5.90
2019-03-05T13:04:32.080Z,3.30
2019-03-05T13:05:32.085Z,4.30
2019-03-05T13:06:32.075Z,3.40
2019-03-05T13:07:32.062Z,3.10
2019-03-05T13:08:32.058Z,5.40